createdAt,value
2018-07-06T00:02:33.898Z,61.70
2018-07-06T00:05:13.950Z,61.70
2018-07-06T00:07:53.720Z,61.70
2018-07-06T00:10:33.573Z,61.70
2018-07-06T00:13:13.375Z,61.70
2018-07-06T00:15:53.239Z,61.70
2018-07-06T00:18:33.215Z,61.80
2018-07-06T00:21:13.133Z,61.90
2018-07-06T00:23:52.881Z,61.90
2018-07-06T00:26:32.683Z,61.90
2018-07-06T00:29:12.624Z,62.00
2018-07-06T00:31:52.652Z,62.00
2018-07-06T00:34:32.591Z,61.90
2018-07-06T00:37:12.450Z,61.90
2018-07-06T00:39:52.246Z,61.90
2018-07-06T00:42:32.139Z,62.70
2018-07-06T00:45:11.984Z,61.90
2018-07-06T00:47:51.837Z,61.90
2018-07-06T00:50:31.742Z,62.00
2018-07-06T00:53:11.477Z,62.10
2018-07-06T00:55:51.272Z,62.20
2018-07-06T00:58:31.376Z,62.20
2018-07-06T01:01:11.120Z,62.20
2018-07-06T01:03:50.995Z,62.10
2018-07-06T01:06:30.640Z,62.20
2018-07-06T01:09:11.617Z,62.20
2018-07-06T01:11:51.596Z,62.20
2018-07-06T01:14:31.477Z,62.20
2018-07-06T01:17:16.431Z,62.20
2018-07-06T01:19:57.067Z,62.20
2018-07-06T01:22:36.907Z,62.20
2018-07-06T01:25:16.626Z,62.40
2018-07-06T01:27:56.490Z,62.20
2018-07-06T01:30:36.440Z,62.30
2018-07-06T01:33:16.292Z,62.30
2018-07-06T01:35:55.990Z,62.30
2018-07-06T01:38:35.579Z,62.40
2018-07-06T01:41:15.258Z,61.80
2018-07-06T01:43:55.052Z,62.40
2018-07-06T01:46:34.790Z,62.50
2018-07-06T01:49:14.640Z,62.40
2018-07-06T01:51:54.335Z,62.30
2018-07-06T01:54:34.179Z,62.30
2018-07-06T01:57:13.970Z,62.30
2018-07-06T01:59:53.641Z,62.30
2018-07-06T02:02:33.537Z,62.30
2018-07-06T02:05:13.438Z,62.30
2018-07-06T02:07:53.329Z,62.20
2018-07-06T02:10:34.016Z,62.20
2018-07-06T02:13:13.936Z,62.20
2018-07-06T02:15:53.844Z,62.20
2018-07-06T02:18:33.739Z,62.00
2018-07-06T02:21:13.646Z,62.00
2018-07-06T02:23:53.475Z,62.00
2018-07-06T02:26:33.077Z,62.00
2018-07-06T02:29:12.884Z,61.90
2018-07-06T02:31:52.771Z,62.00
2018-07-06T02:34:32.715Z,62.00
2018-07-06T02:37:12.617Z,62.00
2018-07-06T02:39:52.341Z,62.00
2018-07-06T02:42:32.024Z,62.00
2018-07-06T02:45:12.028Z,62.10
2018-07-06T02:47:52.054Z,62.10
2018-07-06T02:50:31.887Z,62.10
2018-07-06T02:53:11.738Z,62.10
2018-07-06T02:55:51.588Z,62.20
2018-07-06T02:58:31.426Z,62.30
2018-07-06T03:01:11.280Z,62.30
2018-07-06T03:03:51.043Z,62.30
2018-07-06T03:06:30.952Z,62.40
2018-07-06T03:09:10.736Z,62.40
2018-07-06T03:11:50.602Z,62.40
2018-07-06T03:14:30.544Z,62.40
2018-07-06T03:17:10.276Z,62.50
2018-07-06T03:19:50.179Z,62.40
2018-07-06T03:22:30.090Z,62.40
2018-07-06T03:25:09.931Z,62.30
2018-07-06T03:27:49.893Z,62.30
2018-07-06T03:30:29.696Z,62.20
2018-07-06T03:33:09.444Z,62.40
2018-07-06T03:38:23.116Z,62.40
2018-07-06T03:41:02.991Z,62.30
2018-07-06T03:43:42.703Z,62.30
2018-07-06T03:46:22.385Z,62.40
2018-07-06T03:49:02.160Z,62.40
2018-07-06T03:51:41.948Z,62.40
2018-07-06T03:54:21.769Z,63.20
2018-07-06T03:57:01.591Z,62.50
2018-07-06T03:59:41.487Z,62.50
2018-07-06T04:02:21.324Z,62.40
2018-07-06T04:05:01.182Z,62.50
2018-07-06T04:07:40.842Z,62.50
2018-07-06T04:10:20.667Z,62.50
2018-07-06T04:13:00.556Z,62.50
2018-07-06T04:15:40.514Z,62.50
2018-07-06T04:20:54.007Z,62.50
2018-07-06T04:23:33.787Z,62.60
2018-07-06T04:26:13.664Z,62.60
2018-07-06T04:28:53.536Z,62.70
2018-07-06T04:31:33.394Z,62.70
2018-07-06T04:34:13.144Z,62.70
2018-07-06T04:36:52.771Z,62.70
2018-07-06T04:39:32.456Z,62.80
2018-07-06T04:42:12.284Z,62.70
2018-07-06T04:44:52.070Z,62.90
2018-07-06T04:47:31.777Z,62.90
2018-07-06T04:50:11.408Z,62.90
2018-07-06T04:52:51.078Z,62.90
2018-07-06T04:55:30.926Z,62.90
2018-07-06T04:58:10.710Z,62.80
2018-07-06T05:00:50.562Z,62.80
2018-07-06T05:03:30.449Z,62.90
2018-07-06T05:06:10.276Z,62.80
2018-07-06T05:08:50.071Z,62.80
2018-07-06T05:11:29.964Z,62.80
2018-07-06T05:14:09.601Z,62.70
2018-07-06T05:16:49.394Z,62.70
2018-07-06T05:19:29.125Z,62.60
2018-07-06T05:22:08.867Z,62.60
2018-07-06T05:24:48.785Z,62.80
2018-07-06T05:27:28.337Z,63.00
2018-07-06T05:30:08.064Z,62.90
2018-07-06T05:32:47.946Z,62.90
2018-07-06T05:35:27.622Z,63.70
2018-07-06T05:38:07.477Z,62.80
2018-07-06T05:40:47.307Z,63.00
2018-07-06T05:43:27.103Z,63.00
2018-07-06T05:46:06.692Z,63.10
2018-07-06T05:48:46.435Z,63.10
2018-07-06T05:51:26.462Z,63.10
2018-07-06T05:54:06.340Z,63.10
2018-07-06T05:56:46.152Z,63.10
2018-07-06T05:59:25.900Z,63.20
2018-07-06T06:02:05.797Z,63.20
2018-07-06T06:04:45.746Z,63.10
2018-07-06T06:07:23.835Z,63.10
2018-07-06T06:09:52.373Z,63.10
2018-07-06T06:12:21.159Z,63.20
2018-07-06T06:14:50.364Z,63.30
2018-07-06T06:17:18.974Z,63.40
2018-07-06T06:19:47.519Z,63.50
2018-07-06T06:22:16.066Z,63.60
2018-07-06T06:24:44.606Z,63.70
2018-07-06T06:27:13.231Z,63.70
2018-07-06T06:29:41.853Z,63.70
2018-07-06T06:32:10.616Z,64.00
2018-07-06T06:34:39.256Z,64.10
2018-07-06T06:37:07.804Z,64.30
2018-07-06T06:39:36.351Z,64.30
2018-07-06T06:42:04.902Z,64.30
2018-07-06T06:44:33.577Z,64.40
2018-07-06T06:47:02.559Z,64.40
2018-07-06T06:49:31.869Z,64.40
2018-07-06T06:52:00.530Z,64.30
2018-07-06T06:54:29.320Z,64.30
2018-07-06T06:56:57.877Z,64.50
2018-07-06T06:59:26.432Z,64.60
2018-07-06T07:01:55.010Z,64.50
2018-07-06T07:04:23.738Z,64.60
2018-07-06T07:06:52.876Z,64.70
2018-07-06T07:09:21.610Z,64.70
2018-07-06T07:11:50.170Z,64.80
2018-07-06T07:14:18.714Z,65.00
2018-07-06T07:16:47.734Z,65.00
2018-07-06T07:19:16.248Z,65.10
2018-07-06T07:21:44.879Z,65.20
2018-07-06T07:24:13.623Z,65.30
2018-07-06T07:26:42.221Z,65.40
2018-07-06T07:29:10.921Z,65.30
2018-07-06T07:31:39.543Z,66.10
2018-07-06T07:34:08.151Z,65.30
2018-07-06T07:36:39.081Z,65.40
2018-07-06T07:39:07.926Z,65.60
2018-07-06T07:41:37.377Z,65.70
2018-07-06T07:44:06.119Z,65.70
2018-07-06T07:46:35.423Z,66.50
2018-07-06T07:49:04.217Z,66.50
2018-07-06T07:51:57.385Z,65.90
2018-07-06T07:54:33.689Z,65.90
2018-07-06T07:57:02.933Z,66.10
2018-07-06T07:59:33.167Z,66.20
2018-07-06T08:02:04.882Z,66.30
2018-07-06T08:04:33.493Z,66.30
2018-07-06T08:07:02.846Z,66.30
2018-07-06T08:09:31.392Z,66.30
2018-07-06T08:12:01.256Z,66.40
2018-07-06T08:14:29.854Z,66.50
2018-07-06T08:16:58.502Z,66.60
2018-07-06T08:19:27.027Z,67.40
2018-07-06T08:21:55.888Z,66.70
2018-07-06T08:24:24.379Z,66.70
2018-07-06T08:26:53.012Z,66.80
2018-07-06T08:29:21.491Z,66.90
2018-07-06T08:31:50.049Z,66.60
2018-07-06T08:34:30.014Z,66.30
2018-07-06T08:37:37.870Z,66.40
2018-07-06T08:40:06.675Z,66.20
2018-07-06T08:42:36.436Z,65.90
2018-07-06T08:45:06.470Z,65.40
2018-07-06T08:47:35.076Z,65.40
2018-07-06T08:50:04.247Z,65.50
2018-07-06T08:52:32.806Z,65.30
2018-07-06T08:55:01.364Z,65.10
2018-07-06T08:57:30.915Z,65.10
2018-07-06T08:59:59.728Z,64.90
2018-07-06T09:02:28.323Z,64.70
2018-07-06T09:04:57.687Z,64.50
2018-07-06T09:07:26.325Z,64.30
2018-07-06T09:09:55.838Z,64.20
2018-07-06T09:12:24.521Z,64.20
2018-07-06T09:14:53.026Z,64.00
2018-07-06T09:17:21.995Z,63.80
2018-07-06T09:19:51.019Z,63.70
2018-07-06T09:22:19.537Z,63.40
2018-07-06T09:24:49.213Z,63.00
2018-07-06T09:27:17.718Z,62.60
2018-07-06T09:29:46.308Z,62.00
2018-07-06T09:32:14.821Z,61.90
2018-07-06T09:34:43.581Z,61.50
2018-07-06T09:37:12.114Z,61.60
2018-07-06T09:39:41.644Z,61.20
2018-07-06T09:42:14.136Z,60.80
2018-07-06T09:44:42.971Z,60.60
2018-07-06T09:47:11.494Z,60.20
2018-07-06T09:49:40.058Z,59.90
2018-07-06T09:52:08.754Z,59.80
2018-07-06T09:54:37.496Z,59.50
2018-07-06T09:57:06.972Z,59.40
2018-07-06T09:59:35.556Z,59.30
2018-07-06T10:02:04.182Z,59.00
2018-07-06T10:04:32.927Z,58.90
2018-07-06T10:07:01.508Z,58.80
2018-07-06T10:09:30.022Z,58.80
2018-07-06T10:11:58.624Z,58.70
2018-07-06T10:14:27.164Z,58.50
2018-07-06T10:16:55.712Z,59.00
2018-07-06T10:19:24.324Z,58.20
2018-07-06T10:21:53.081Z,58.00
2018-07-06T10:24:21.619Z,57.90
2018-07-06T10:26:50.214Z,57.80
2018-07-06T10:29:25.356Z,57.70
2018-07-06T10:32:18.489Z,57.40
2018-07-06T10:34:47.172Z,57.20
2018-07-06T10:37:16.443Z,57.20
2018-07-06T10:39:51.904Z,57.10
2018-07-06T10:44:48.945Z,56.70
2018-07-06T10:47:17.466Z,56.70
2018-07-06T10:49:46.742Z,56.10
2018-07-06T10:52:16.205Z,56.40
2018-07-06T10:54:45.272Z,56.30
2018-07-06T10:57:17.087Z,56.20
2018-07-06T10:59:45.762Z,56.10
2018-07-06T11:02:14.342Z,55.90
2018-07-06T11:04:43.137Z,55.80
2018-07-06T11:07:11.696Z,55.70
2018-07-06T11:09:40.274Z,55.60
2018-07-06T11:12:08.790Z,55.40
2018-07-06T11:14:37.345Z,55.10
2018-07-06T11:17:05.950Z,55.20
2018-07-06T11:19:34.535Z,55.00
2018-07-06T11:22:03.043Z,54.80
2018-07-06T11:24:31.531Z,54.80
2018-07-06T11:27:00.042Z,54.80
2018-07-06T11:29:28.689Z,54.50
2018-07-06T11:31:57.211Z,54.50
2018-07-06T11:34:25.756Z,54.50
2018-07-06T11:36:54.288Z,54.50
2018-07-06T11:39:22.831Z,54.50
2018-07-06T11:41:51.355Z,54.10
2018-07-06T11:44:19.907Z,54.00
2018-07-06T11:46:48.434Z,54.00
2018-07-06T11:49:17.014Z,54.00
2018-07-06T11:51:45.617Z,53.90
2018-07-06T11:54:14.124Z,53.70
2018-07-06T11:56:42.669Z,53.50
2018-07-06T11:59:11.199Z,53.50
2018-07-06T12:01:39.956Z,53.20
2018-07-06T12:04:08.545Z,53.10
2018-07-06T12:06:36.999Z,52.90
2018-07-06T12:09:06.165Z,52.90
2018-07-06T12:11:34.643Z,52.60
2018-07-06T12:14:03.181Z,52.60
2018-07-06T12:16:32.111Z,52.60
2018-07-06T12:19:00.642Z,52.50
2018-07-06T12:21:29.375Z,52.30
2018-07-06T12:23:57.791Z,52.00
2018-07-06T12:26:27.929Z,51.90
2018-07-06T12:28:56.465Z,51.80
2018-07-06T12:31:25.454Z,51.80
2018-07-06T12:33:55.999Z,51.80
2018-07-06T12:36:24.508Z,51.80
2018-07-06T12:38:53.041Z,51.60
2018-07-06T12:41:21.811Z,51.50
2018-07-06T12:43:50.746Z,51.50
2018-07-06T12:46:19.368Z,51.30
2018-07-06T12:48:49.291Z,51.40
2018-07-06T12:51:17.807Z,51.30
2018-07-06T12:53:47.891Z,51.20
2018-07-06T12:58:45.241Z,51.00
2018-07-06T13:01:13.902Z,51.00
2018-07-06T13:03:42.423Z,51.00
2018-07-06T13:06:11.079Z,50.90
2018-07-06T13:08:39.610Z,50.90
2018-07-06T13:11:08.099Z,50.80
2018-07-06T13:13:37.382Z,50.50
2018-07-06T13:16:06.263Z,50.60
2018-07-06T13:18:34.853Z,50.50
2018-07-06T13:21:03.828Z,50.40
2018-07-06T13:23:32.350Z,50.30
2018-07-06T13:26:00.897Z,50.20
2018-07-06T13:28:29.424Z,50.20
2018-07-06T13:30:58.068Z,50.00
2018-07-06T13:33:30.144Z,50.00
2018-07-06T13:35:58.872Z,50.00
2018-07-06T13:38:27.593Z,49.90
2018-07-06T13:40:56.216Z,50.00
2018-07-06T13:43:24.675Z,49.90
2018-07-06T13:45:54.191Z,49.80
2018-07-06T13:48:22.665Z,50.10
2018-07-06T13:50:51.147Z,49.80
2018-07-06T13:53:19.797Z,49.80
2018-07-06T13:55:48.316Z,49.70
2018-07-06T13:58:17.040Z,49.40
2018-07-06T14:00:45.692Z,49.40
2018-07-06T14:03:16.446Z,49.40
2018-07-06T14:05:45.021Z,49.80
2018-07-06T14:08:13.827Z,49.10
2018-07-06T14:10:44.262Z,48.90
2018-07-06T14:13:14.420Z,49.00
2018-07-06T14:15:43.132Z,48.90
2018-07-06T14:18:11.764Z,48.90
2018-07-06T14:20:40.379Z,48.90
2018-07-06T14:23:08.818Z,48.90
2018-07-06T14:25:37.305Z,48.80
2018-07-06T14:28:05.825Z,48.80
2018-07-06T14:30:35.521Z,49.00
2018-07-06T14:33:04.203Z,48.80
2018-07-06T14:35:32.735Z,48.70
2018-07-06T14:38:01.247Z,48.50
2018-07-06T14:40:29.747Z,48.50
2018-07-06T14:42:58.232Z,48.40
2018-07-06T14:45:26.752Z,48.40
2018-07-06T14:47:55.279Z,48.50
2018-07-06T14:50:23.769Z,48.50
2018-07-06T14:52:52.587Z,48.40
2018-07-06T14:55:21.124Z,48.20
2018-07-06T14:57:49.628Z,48.30
2018-07-06T15:00:18.114Z,48.30
2018-07-06T15:02:46.651Z,48.10
2018-07-06T15:05:15.131Z,48.00
2018-07-06T15:07:43.704Z,48.00
2018-07-06T15:10:12.603Z,47.90
2018-07-06T15:12:41.161Z,47.80
2018-07-06T15:15:09.618Z,47.60
2018-07-06T15:17:38.141Z,47.60
2018-07-06T15:20:06.691Z,47.50
2018-07-06T15:22:35.268Z,47.30
2018-07-06T15:25:03.839Z,47.10
2018-07-06T15:27:32.329Z,47.00
2018-07-06T15:32:29.274Z,47.00
2018-07-06T15:34:57.766Z,47.00
2018-07-06T15:37:26.246Z,47.10
2018-07-06T15:39:54.755Z,47.30
2018-07-06T15:44:51.497Z,47.00
2018-07-06T15:47:20.064Z,47.10
2018-07-06T15:49:48.591Z,47.10
2018-07-06T15:52:17.266Z,47.20
2018-07-06T15:54:45.850Z,47.10
2018-07-06T15:57:14.651Z,47.20
2018-07-06T15:59:43.094Z,47.20
2018-07-06T16:02:11.590Z,47.30
2018-07-06T16:04:40.108Z,47.20
2018-07-06T16:07:08.600Z,47.10
2018-07-06T16:09:37.074Z,47.20
2018-07-06T16:12:05.662Z,47.40
2018-07-06T16:14:34.140Z,47.50
2018-07-06T16:17:02.607Z,47.60
2018-07-06T16:19:31.116Z,47.60
2018-07-06T16:21:59.674Z,47.50
2018-07-06T16:24:28.146Z,47.70
2018-07-06T16:26:56.723Z,47.70
2018-07-06T16:29:25.223Z,47.70
2018-07-06T16:31:53.845Z,47.90
2018-07-06T16:34:22.242Z,48.10
2018-07-06T16:36:50.765Z,48.30
2018-07-06T16:39:19.266Z,48.20
2018-07-06T16:41:47.760Z,48.90
2018-07-06T16:44:16.602Z,48.30
2018-07-06T16:46:45.141Z,48.40
2018-07-06T16:49:13.659Z,48.50
2018-07-06T16:51:42.161Z,48.60
2018-07-06T16:56:39.183Z,48.70
2018-07-06T16:59:07.736Z,48.50
2018-07-06T17:01:36.261Z,48.70
2018-07-06T17:04:04.773Z,48.90
2018-07-06T17:06:33.277Z,49.00
2018-07-06T17:09:02.116Z,49.00
2018-07-06T17:11:30.663Z,49.10
2018-07-06T17:13:59.117Z,49.10
2018-07-06T17:16:27.630Z,49.20
2018-07-06T17:18:56.093Z,49.20
2018-07-06T17:21:24.623Z,49.30
2018-07-06T17:23:53.127Z,49.90
2018-07-06T17:26:21.695Z,49.30
2018-07-06T17:28:50.530Z,49.50
2018-07-06T17:31:19.000Z,49.50
2018-07-06T17:33:47.486Z,49.40
2018-07-06T17:36:15.935Z,49.70
2018-07-06T17:38:44.489Z,49.70
2018-07-06T17:41:13.022Z,49.70
2018-07-06T17:43:41.546Z,50.40
2018-07-06T17:46:09.982Z,49.80
2018-07-06T17:48:38.502Z,49.90
2018-07-06T17:51:07.014Z,49.90
2018-07-06T17:53:35.582Z,50.00
2018-07-06T17:56:04.118Z,50.00
2018-07-06T17:58:32.668Z,50.10
2018-07-06T18:01:01.121Z,50.10
2018-07-06T18:03:29.563Z,50.20
2018-07-06T18:05:58.067Z,50.30
2018-07-06T18:08:26.532Z,50.40
2018-07-06T18:10:55.080Z,50.50
2018-07-06T18:13:23.607Z,50.80
2018-07-06T18:15:52.160Z,50.90
2018-07-06T18:18:20.645Z,51.00
2018-07-06T18:20:49.146Z,51.20
2018-07-06T18:23:17.693Z,51.10
2018-07-06T18:25:46.230Z,51.00
2018-07-06T18:28:14.698Z,51.40
2018-07-06T18:30:43.215Z,51.50
2018-07-06T18:35:39.853Z,51.70
2018-07-06T18:38:08.272Z,51.80
2018-07-06T18:40:36.845Z,51.80
2018-07-06T18:43:05.430Z,51.90
2018-07-06T18:45:33.974Z,52.00
2018-07-06T18:48:02.426Z,52.10
2018-07-06T18:50:30.892Z,52.20
2018-07-06T18:52:59.414Z,52.20
2018-07-06T18:55:27.956Z,52.20
2018-07-06T18:57:56.454Z,52.40
2018-07-06T19:02:53.219Z,52.50
2018-07-06T19:05:21.702Z,52.60
2018-07-06T19:07:50.249Z,52.60
2018-07-06T19:10:18.738Z,52.70
2018-07-06T19:12:47.231Z,52.60
2018-07-06T19:15:15.757Z,52.60
2018-07-06T19:17:44.232Z,52.70
2018-07-06T19:20:12.776Z,52.80
2018-07-06T19:22:41.343Z,52.90
2018-07-06T19:25:09.807Z,52.80
2018-07-06T19:27:38.646Z,52.80
2018-07-06T19:30:07.099Z,52.80
2018-07-06T19:32:35.590Z,52.80
2018-07-06T19:35:04.044Z,53.00
2018-07-06T19:37:32.541Z,53.10
2018-07-06T19:40:01.135Z,53.20
2018-07-06T19:42:29.649Z,53.20
2018-07-06T19:44:58.152Z,53.40
2018-07-06T19:47:26.681Z,53.40
2018-07-06T19:49:55.161Z,53.50
2018-07-06T19:52:23.672Z,53.50
2018-07-06T19:54:52.230Z,53.60
2018-07-06T19:57:20.718Z,53.60
2018-07-06T19:59:49.193Z,53.70
2018-07-06T20:02:17.667Z,53.80
2018-07-06T20:04:46.173Z,53.80
2018-07-06T20:07:14.730Z,53.70
2018-07-06T20:09:43.218Z,53.80
2018-07-06T20:12:11.814Z,53.70
2018-07-06T20:14:40.273Z,53.70
2018-07-06T20:17:08.780Z,53.80
2018-07-06T20:19:37.268Z,53.90
2018-07-06T20:22:05.934Z,54.00
2018-07-06T20:24:34.452Z,53.90
2018-07-06T20:27:02.909Z,54.10
2018-07-06T20:29:31.398Z,54.10
2018-07-06T20:31:59.983Z,54.20
2018-07-06T20:34:28.510Z,54.20
2018-07-06T20:36:56.911Z,54.30
2018-07-06T20:39:25.424Z,54.30
2018-07-06T20:41:53.909Z,54.40
2018-07-06T20:44:22.529Z,54.40
2018-07-06T20:46:51.017Z,54.40
2018-07-06T20:49:19.530Z,54.50
2018-07-06T20:51:48.023Z,54.60
2018-07-06T20:54:16.507Z,54.70
2018-07-06T20:56:44.979Z,54.70
2018-07-06T20:59:13.634Z,54.70
2018-07-06T21:01:42.104Z,54.80
2018-07-06T21:04:10.637Z,54.80
2018-07-06T21:06:39.158Z,54.80
2018-07-06T21:09:07.618Z,54.90
2018-07-06T21:11:36.119Z,55.00
2018-07-06T21:14:04.605Z,55.10
2018-07-06T21:16:33.163Z,55.20
2018-07-06T21:19:01.619Z,55.10
2018-07-06T21:21:30.134Z,55.20
2018-07-06T21:23:58.650Z,55.30
2018-07-06T21:26:27.139Z,55.30
2018-07-06T21:28:55.562Z,55.40
2018-07-06T21:31:24.150Z,55.40
2018-07-06T21:33:52.585Z,55.40
2018-07-06T21:36:21.082Z,55.50
2018-07-06T21:38:49.534Z,55.50
2018-07-06T21:41:18.037Z,55.60
2018-07-06T21:43:46.449Z,55.60
2018-07-06T21:46:15.102Z,55.60
2018-07-06T21:48:43.723Z,55.60
2018-07-06T21:51:12.242Z,55.70
2018-07-06T21:53:40.740Z,55.70
2018-07-06T21:56:09.251Z,55.80
2018-07-06T21:58:37.785Z,55.90
2018-07-06T22:01:06.328Z,56.00
2018-07-06T22:03:34.841Z,56.00
2018-07-06T22:06:03.371Z,56.10
2018-07-06T22:08:31.846Z,56.20
2018-07-06T22:11:00.310Z,56.30
2018-07-06T22:13:29.062Z,56.40
2018-07-06T22:18:25.775Z,56.60
2018-07-06T22:20:54.250Z,56.70
2018-07-06T22:23:22.859Z,56.70
2018-07-06T22:25:51.399Z,56.60
2018-07-06T22:28:19.975Z,56.60
2018-07-06T22:30:48.544Z,56.60
2018-07-06T22:33:17.261Z,56.60
2018-07-06T22:35:45.834Z,56.60
2018-07-06T22:38:14.445Z,56.60
2018-07-06T22:40:43.026Z,56.60
2018-07-06T22:43:11.615Z,56.50
2018-07-06T22:45:40.240Z,56.50
2018-07-06T22:48:08.829Z,56.50
2018-07-06T22:50:37.453Z,56.50
2018-07-06T22:53:06.050Z,56.50
2018-07-06T22:55:34.567Z,56.60
2018-07-06T22:58:03.171Z,56.90
2018-07-06T23:00:31.791Z,57.00
2018-07-06T23:03:01.988Z,57.20
2018-07-06T23:05:30.567Z,57.40
2018-07-06T23:07:59.059Z,57.40
2018-07-06T23:10:27.633Z,57.40
2018-07-06T23:12:56.197Z,57.40
2018-07-06T23:15:24.695Z,57.40
2018-07-06T23:17:53.239Z,57.50
2018-07-06T23:20:21.744Z,57.50
2018-07-06T23:22:59.481Z,57.50
2018-07-06T23:25:28.111Z,57.60
2018-07-06T23:27:56.770Z,57.60
2018-07-06T23:30:25.922Z,57.70
2018-07-06T23:32:54.788Z,57.70
2018-07-06T23:35:23.806Z,57.80
2018-07-06T23:37:52.630Z,57.90
2018-07-06T23:40:21.481Z,57.90
2018-07-06T23:42:50.067Z,57.90
2018-07-06T23:45:18.655Z,57.90
2018-07-06T23:47:47.176Z,57.90
2018-07-06T23:50:16.107Z,57.90
2018-07-06T23:52:44.614Z,57.90
2018-07-06T23:55:13.592Z,57.90
2018-07-06T23:57:42.232Z,57.90
